sensor_id;sensor_type;location;lat;lon;timestamp;temperature;humidity
54409;DHT22;40315;48.620;9.828;2023-03-11T02:03:41;1.50;99.90
54409;DHT22;40315;48.620;9.828;2023-03-11T02:06:11;1.40;99.90
54409;DHT22;40315;48.620;9.828;2023-03-11T02:08:40;1.40;99.90
54409;DHT22;40315;48.620;9.828;2023-03-11T02:11:13;1.40;99.90
54409;DHT22;40315;48.620;9.828;2023-03-11T02:13:42;1.40;99.90
54409;DHT22;40315;48.620;9.828;2023-03-11T02:18:40;1.40;99.90
54409;DHT22;40315;48.620;9.828;2023-03-11T02:21:16;1.40;99.90
54409;DHT22;40315;48.620;9.828;2023-03-11T02:23:51;1.40;99.90
54409;DHT22;40315;48.620;9.828;2023-03-11T02:26:23;1.40;99.90
54409;DHT22;40315;48.620;9.828;2023-03-11T02:28:54;1.30;99.90
54409;DHT22;40315;48.620;9.828;2023-03-11T02:31:22;1.30;99.90
54409;DHT22;40315;48.620;9.828;2023-03-11T02:33:52;1.30;99.90
54409;DHT22;40315;48.620;9.828;2023-03-11T02:36:35;1.30;99.90
54409;DHT22;40315;48.620;9.828;2023-03-11T02:39:04;1.30;99.90
54409;DHT22;40315;48.620;9.828;2023-03-11T02:41:34;1.20;99.90
54409;DHT22;40315;48.620;9.828;2023-03-11T02:44:07;1.20;99.90
54409;DHT22;40315;48.620;9.828;2023-03-11T02:46:36;1.10;99.90
54409;DHT22;40315;48.620;9.828;2023-03-11T02:49:05;1.10;99.90
54409;DHT22;40315;48.620;9.828;2023-03-11T02:51:34;1.10;99.90
54409;DHT22;40315;48.620;9.828;2023-03-11T02:54:12;1.00;99.90
54409;DHT22;40315;48.620;9.828;2023-03-11T02:56:41;1.00;99.90
54409;DHT22;40315;48.620;9.828;2023-03-11T02:59:09;0.90;99.90
54409;DHT22;40315;48.620;9.828;2023-03-11T03:01:36;0.90;99.90
54409;DHT22;40315;48.620;9.828;2023-03-11T03:04:03;1.60;99.90
54409;DHT22;40315;48.620;9.828;2023-03-11T03:08:59;0.80;99.90
54409;DHT22;40315;48.620;9.828;2023-03-11T03:11:26;0.70;99.90
54409;DHT22;40315;48.620;9.828;2023-03-11T03:13:58;2.00;99.90
54409;DHT22;40315;48.620;9.828;2023-03-11T03:16:27;0.60;99.90
54409;DHT22;40315;48.620;9.828;2023-03-11T03:21:24;0.60;99.90
54409;DHT22;40315;48.620;9.828;2023-03-11T03:24:01;0.50;99.90
54409;DHT22;40315;48.620;9.828;2023-03-11T03:26:28;0.60;99.90
54409;DHT22;40315;48.620;9.828;2023-03-11T03:28:55;0.50;99.90
54409;DHT22;40315;48.620;9.828;2023-03-11T03:31:22;0.50;99.90
54409;DHT22;40315;48.620;9.828;2023-03-11T03:33:51;0.50;99.90
54409;DHT22;40315;48.620;9.828;2023-03-11T03:36:18;0.40;99.90
54409;DHT22;40315;48.620;9.828;2023-03-11T03:38:53;0.50;99.90
54409;DHT22;40315;48.620;9.828;2023-03-11T03:41:21;0.40;99.90
54409;DHT22;40315;48.620;9.828;2023-03-11T03:43:51;0.40;99.90
54409;DHT22;40315;48.620;9.828;2023-03-11T03:46:20;0.30;99.90
54409;DHT22;40315;48.620;9.828;2023-03-11T03:48:53;0.30;99.90
54409;DHT22;40315;48.620;9.828;2023-03-11T03:51:20;0.20;99.90
54409;DHT22;40315;48.620;9.828;2023-03-11T03:54:01;0.20;99.90
54409;DHT22;40315;48.620;9.828;2023-03-11T03:56:29;0.20;99.90
54409;DHT22;40315;48.620;9.828;2023-03-11T03:58:57;0.20;99.90
54409;DHT22;40315;48.620;9.828;2023-03-11T04:01:29;0.20;99.90
54409;DHT22;40315;48.620;9.828;2023-03-11T04:03:58;0.10;99.90
54409;DHT22;40315;48.620;9.828;2023-03-11T04:06:26;0.10;99.90
54409;DHT22;40315;48.620;9.828;2023-03-11T04:08:58;0.00;99.90
54409;DHT22;40315;48.620;9.828;2023-03-11T04:11:29;0.10;99.90
54409;DHT22;40315;48.620;9.828;2023-03-11T04:14:05;0.10;99.90
54409;DHT22;40315;48.620;9.828;2023-03-11T04:16:37;0.10;99.90
54409;DHT22;40315;48.620;9.828;2023-03-11T04:19:09;2.60;99.90
54409;DHT22;40315;48.620;9.828;2023-03-11T04:21:39;0.00;99.90
54409;DHT22;40315;48.620;9.828;2023-03-11T04:24:07;-0.10;99.90
54409;DHT22;40315;48.620;9.828;2023-03-11T04:26:37;0.00;99.90
54409;DHT22;40315;48.620;9.828;2023-03-11T04:29:08;0.70;99.90
54409;DHT22;40315;48.620;9.828;2023-03-11T04:31:41;-0.10;99.90
54409;DHT22;40315;48.620;9.828;2023-03-11T04:34:10;-0.10;99.90
54409;DHT22;40315;48.620;9.828;2023-03-11T04:36:38;0.50;99.90
54409;DHT22;40315;48.620;9.828;2023-03-11T04:39:06;0.00;99.90
54409;DHT22;40315;48.620;9.828;2023-03-11T04:41:39;-0.10;99.90
54409;DHT22;40315;48.620;9.828;2023-03-11T04:44:07;-0.10;99.90
54409;DHT22;40315;48.620;9.828;2023-03-11T04:46:34;-0.10;99.90
54409;DHT22;40315;48.620;9.828;2023-03-11T04:49:04;-0.10;99.90
54409;DHT22;40315;48.620;9.828;2023-03-11T04:51:34;-0.10;99.90
54409;DHT22;40315;48.620;9.828;2023-03-11T04:54:09;-0.10;99.90
54409;DHT22;40315;48.620;9.828;2023-03-11T04:56:37;-0.10;99.90
54409;DHT22;40315;48.620;9.828;2023-03-11T04:59:05;-0.20;99.90
54409;DHT22;40315;48.620;9.828;2023-03-11T05:01:34;0.20;99.90
54409;DHT22;40315;48.620;9.828;2023-03-11T05:04:04;0.30;99.90
54409;DHT22;40315;48.620;9.828;2023-03-11T05:06:31;0.00;99.90
54409;DHT22;40315;48.620;9.828;2023-03-11T05:09:01;0.30;99.90
54409;DHT22;40315;48.620;9.828;2023-03-11T05:11:33;-0.20;99.90
54409;DHT22;40315;48.620;9.828;2023-03-11T05:14:01;-0.10;99.90
54409;DHT22;40315;48.620;9.828;2023-03-11T05:16:30;-0.10;99.90
54409;DHT22;40315;48.620;9.828;2023-03-11T05:18:58;-0.10;99.90
54409;DHT22;40315;48.620;9.828;2023-03-11T05:21:25;-0.10;99.90
54409;DHT22;40315;48.620;9.828;2023-03-11T05:23:52;-0.10;99.90
54409;DHT22;40315;48.620;9.828;2023-03-11T05:26:21;-0.20;99.90
54409;DHT22;40315;48.620;9.828;2023-03-11T05:28:48;-0.30;99.90
54409;DHT22;40315;48.620;9.828;2023-03-11T05:31:15;-0.30;99.90
54409;DHT22;40315;48.620;9.828;2023-03-11T05:33:43;-0.20;99.90
54409;DHT22;40315;48.620;9.828;2023-03-11T05:36:12;-0.20;99.90
54409;DHT22;40315;48.620;9.828;2023-03-11T05:38:42;0.20;99.90
54409;DHT22;40315;48.620;9.828;2023-03-11T05:41:10;-0.10;99.90
54409;DHT22;40315;48.620;9.828;2023-03-11T05:43:41;-0.20;99.90
54409;DHT22;40315;48.620;9.828;2023-03-11T05:46:09;-0.20;99.90
54409;DHT22;40315;48.620;9.828;2023-03-11T05:48:36;0.00;99.90
54409;DHT22;40315;48.620;9.828;2023-03-11T05:51:05;-0.30;99.90
54409;DHT22;40315;48.620;9.828;2023-03-11T05:53:33;-0.40;99.90
54409;DHT22;40315;48.620;9.828;2023-03-11T05:56:00;-0.40;99.90
54409;DHT22;40315;48.620;9.828;2023-03-11T05:58:29;0.10;99.90
54409;DHT22;40315;48.620;9.828;2023-03-11T06:00:58;-0.30;99.90
54409;DHT22;40315;48.620;9.828;2023-03-11T06:03:25;-0.30;99.90
54409;DHT22;40315;48.620;9.828;2023-03-11T06:05:52;-0.30;99.90
54409;DHT22;40315;48.620;9.828;2023-03-11T06:08:20;-0.30;99.90
54409;DHT22;40315;48.620;9.828;2023-03-11T06:10:47;-0.30;99.90
54409;DHT22;40315;48.620;9.828;2023-03-11T06:13:19;-0.40;99.90
54409;DHT22;40315;48.620;9.828;2023-03-11T06:15:49;-0.30;99.90
54409;DHT22;40315;48.620;9.828;2023-03-11T06:18:18;-0.30;99.90
54409;DHT22;40315;48.620;9.828;2023-03-11T06:20:48;-0.30;99.90
54409;DHT22;40315;48.620;9.828;2023-03-11T06:23:15;-0.30;99.90
54409;DHT22;40315;48.620;9.828;2023-03-11T06:25:42;0.40;99.90
54409;DHT22;40315;48.620;9.828;2023-03-11T06:28:10;-0.20;99.90
54409;DHT22;40315;48.620;9.828;2023-03-11T06:30:38;-0.20;99.90
54409;DHT22;40315;48.620;9.828;2023-03-11T06:33:09;-0.30;99.90
54409;DHT22;40315;48.620;9.828;2023-03-11T06:35:40;-0.30;99.90
54409;DHT22;40315;48.620;9.828;2023-03-11T06:38:08;0.60;99.90
54409;DHT22;40315;48.620;9.828;2023-03-11T06:40:38;-0.10;99.90
54409;DHT22;40315;48.620;9.828;2023-03-11T06:43:08;-0.20;99.90
54409;DHT22;40315;48.620;9.828;2023-03-11T06:45:39;-0.20;99.90
54409;DHT22;40315;48.620;9.828;2023-03-11T06:48:09;-0.20;99.90
54409;DHT22;40315;48.620;9.828;2023-03-11T06:50:37;-0.20;99.90
54409;DHT22;40315;48.620;9.828;2023-03-11T06:53:05;-0.20;99.90
54409;DHT22;40315;48.620;9.828;2023-03-11T06:55:35;-0.10;99.90
54409;DHT22;40315;48.620;9.828;2023-03-11T06:58:03;-0.10;99.90
54409;DHT22;40315;48.620;9.828;2023-03-11T07:00:31;0.00;99.90
54409;DHT22;40315;48.620;9.828;2023-03-11T07:03:02;-0.10;99.90
54409;DHT22;40315;48.620;9.828;2023-03-11T07:05:32;-0.10;99.90
54409;DHT22;40315;48.620;9.828;2023-03-11T07:08:06;-0.20;99.90
54409;DHT22;40315;48.620;9.828;2023-03-11T07:10:33;-0.10;99.90
54409;DHT22;40315;48.620;9.828;2023-03-11T07:13:01;0.00;99.90
54409;DHT22;40315;48.620;9.828;2023-03-11T07:15:29;0.10;99.90
54409;DHT22;40315;48.620;9.828;2023-03-11T07:17:56;0.10;99.90
54409;DHT22;40315;48.620;9.828;2023-03-11T07:20:23;0.20;99.90
54409;DHT22;40315;48.620;9.828;2023-03-11T07:22:50;0.30;99.90
54409;DHT22;40315;48.620;9.828;2023-03-11T07:25:19;0.40;99.90
54409;DHT22;40315;48.620;9.828;2023-03-11T07:27:46;0.00;99.90
54409;DHT22;40315;48.620;9.828;2023-03-11T07:30:14;0.00;99.90
54409;DHT22;40315;48.620;9.828;2023-03-11T07:32:41;0.00;99.90
54409;DHT22;40315;48.620;9.828;2023-03-11T07:35:08;0.10;99.90
54409;DHT22;40315;48.620;9.828;2023-03-11T07:37:37;0.00;99.90
54409;DHT22;40315;48.620;9.828;2023-03-11T07:40:05;0.60;99.90
54409;DHT22;40315;48.620;9.828;2023-03-11T07:42:34;0.00;99.90
54409;DHT22;40315;48.620;9.828;2023-03-11T07:45:01;0.10;99.90
54409;DHT22;40315;48.620;9.828;2023-03-11T07:47:29;0.20;99.90
54409;DHT22;40315;48.620;9.828;2023-03-11T07:49:56;0.40;99.90
54409;DHT22;40315;48.620;9.828;2023-03-11T07:54:50;0.10;99.90
54409;DHT22;40315;48.620;9.828;2023-03-11T07:57:17;0.10;99.90
54409;DHT22;40315;48.620;9.828;2023-03-11T07:59:46;0.80;99.90
54409;DHT22;40315;48.620;9.828;2023-03-11T08:02:13;0.40;99.90
54409;DHT22;40315;48.620;9.828;2023-03-11T08:04:40;0.30;99.90
54409;DHT22;40315;48.620;9.828;2023-03-11T08:07:07;0.50;99.90
54409;DHT22;40315;48.620;9.828;2023-03-11T08:09:35;0.40;99.90
54409;DHT22;40315;48.620;9.828;2023-03-11T08:12:02;2.50;99.90
54409;DHT22;40315;48.620;9.828;2023-03-11T08:14:29;0.30;99.90
54409;DHT22;40315;48.620;9.828;2023-03-11T08:16:58;0.80;99.90
54409;DHT22;40315;48.620;9.828;2023-03-11T08:19:25;0.40;99.90
54409;DHT22;40315;48.620;9.828;2023-03-11T08:21:52;0.30;99.90
54409;DHT22;40315;48.620;9.828;2023-03-11T08:24:20;0.00;99.90
54409;DHT22;40315;48.620;9.828;2023-03-11T08:26:49;0.00;99.90
54409;DHT22;40315;48.620;9.828;2023-03-11T08:29:16;0.00;99.90
54409;DHT22;40315;48.620;9.828;2023-03-11T08:31:44;0.00;99.90
54409;DHT22;40315;48.620;9.828;2023-03-11T08:34:14;0.10;99.90
54409;DHT22;40315;48.620;9.828;2023-03-11T08:36:42;0.50;99.90
54409;DHT22;40315;48.620;9.828;2023-03-11T08:39:14;1.00;99.90
54409;DHT22;40315;48.620;9.828;2023-03-11T08:41:41;1.10;99.90
54409;DHT22;40315;48.620;9.828;2023-03-11T08:44:08;1.20;99.90
54409;DHT22;40315;48.620;9.828;2023-03-11T08:46:37;1.10;99.90
54409;DHT22;40315;48.620;9.828;2023-03-11T08:49:05;1.90;99.90
54409;DHT22;40315;48.620;9.828;2023-03-11T08:51:34;1.60;99.90
54409;DHT22;40315;48.620;9.828;2023-03-11T08:54:02;1.40;99.90
54409;DHT22;40315;48.620;9.828;2023-03-11T08:56:29;1.50;99.90
54409;DHT22;40315;48.620;9.828;2023-03-11T08:58:57;1.30;99.90
54409;DHT22;40315;48.620;9.828;2023-03-11T09:01:24;1.40;99.90
54409;DHT22;40315;48.620;9.828;2023-03-11T09:03:52;1.50;99.90
54409;DHT22;40315;48.620;9.828;2023-03-11T09:06:19;1.10;99.90
54409;DHT22;40315;48.620;9.828;2023-03-11T09:08:48;1.10;99.90
54409;DHT22;40315;48.620;9.828;2023-03-11T09:11:16;0.90;99.90
54409;DHT22;40315;48.620;9.828;2023-03-11T09:16:15;1.10;99.90
54409;DHT22;40315;48.620;9.828;2023-03-11T09:18:45;1.10;99.90
54409;DHT22;40315;48.620;9.828;2023-03-11T09:21:12;1.40;99.90
54409;DHT22;40315;48.620;9.828;2023-03-11T09:23:42;1.50;99.90
54409;DHT22;40315;48.620;9.828;2023-03-11T09:26:11;1.80;99.90
54409;DHT22;40315;48.620;9.828;2023-03-11T09:28:38;1.80;99.90
54409;DHT22;40315;48.620;9.828;2023-03-11T09:31:06;1.90;99.90
54409;DHT22;40315;48.620;9.828;2023-03-11T09:33:36;1.60;99.90
54409;DHT22;40315;48.620;9.828;2023-03-11T09:36:04;1.20;99.90
54409;DHT22;40315;48.620;9.828;2023-03-11T09:38:34;1.00;99.90
54409;DHT22;40315;48.620;9.828;2023-03-11T09:41:06;0.90;99.90
54409;DHT22;40315;48.620;9.828;2023-03-11T09:43:58;0.90;99.90
54409;DHT22;40315;48.620;9.828;2023-03-11T09:46:58;0.90;99.90
54409;DHT22;40315;48.620;9.828;2023-03-11T09:49:35;0.80;99.90
54409;DHT22;40315;48.620;9.828;2023-03-11T09:52:09;0.90;99.90
54409;DHT22;40315;48.620;9.828;2023-03-11T09:54:39;2.10;99.90
54409;DHT22;40315;48.620;9.828;2023-03-11T09:57:11;1.10;99.90
54409;DHT22;40315;48.620;9.828;2023-03-11T09:59:44;1.20;99.90
54409;DHT22;40315;48.620;9.828;2023-03-11T10:02:17;1.50;99.90
54409;DHT22;40315;48.620;9.828;2023-03-11T10:04:52;1.50;99.90
54409;DHT22;40315;48.620;9.828;2023-03-11T10:07:24;2.30;99.90
54409;DHT22;40315;48.620;9.828;2023-03-11T10:09:55;1.90;99.90
54409;DHT22;40315;48.620;9.828;2023-03-11T10:12:36;1.80;99.90
54409;DHT22;40315;48.620;9.828;2023-03-11T10:15:23;1.90;99.90
54409;DHT22;40315;48.620;9.828;2023-03-11T10:18:04;2.10;99.90
54409;DHT22;40315;48.620;9.828;2023-03-11T10:20:44;2.20;99.90
54409;DHT22;40315;48.620;9.828;2023-03-11T10:23:23;2.50;99.90
54409;DHT22;40315;48.620;9.828;2023-03-11T10:25:58;2.90;99.90
54409;DHT22;40315;48.620;9.828;2023-03-11T10:28:34;2.90;99.90
54409;DHT22;40315;48.620;9.828;2023-03-11T10:31:18;2.90;99.90
54409;DHT22;40315;48.620;9.828;2023-03-11T10:33:49;2.80;99.90
54409;DHT22;40315;48.620;9.828;2023-03-11T10:36:22;2.60;99.90
54409;DHT22;40315;48.620;9.828;2023-03-11T10:38:52;2.40;99.90
54409;DHT22;40315;48.620;9.828;2023-03-11T10:41:26;2.70;99.90
54409;DHT22;40315;48.620;9.828;2023-03-11T10:44:01;2.80;99.90
54409;DHT22;40315;48.620;9.828;2023-03-11T10:46:31;2.90;99.90
54409;DHT22;40315;48.620;9.828;2023-03-11T10:48:59;3.00;99.90
54409;DHT22;40315;48.620;9.828;2023-03-11T10:51:30;3.10;99.90
54409;DHT22;40315;48.620;9.828;2023-03-11T10:54:01;2.80;99.90
54409;DHT22;40315;48.620;9.828;2023-03-11T10:56:31;3.00;99.90
54409;DHT22;40315;48.620;9.828;2023-03-11T10:59:00;3.80;99.90
54409;DHT22;40315;48.620;9.828;2023-03-11T11:01:28;3.40;99.90
54409;DHT22;40315;48.620;9.828;2023-03-11T11:03:59;3.40;99.90
54409;DHT22;40315;48.620;9.828;2023-03-11T11:06:28;3.30;99.90
54409;DHT22;40315;48.620;9.828;2023-03-11T11:09:12;3.60;99.90
54409;DHT22;40315;48.620;9.828;2023-03-11T11:11:39;3.90;99.90
54409;DHT22;40315;48.620;9.828;2023-03-11T11:14:07;4.10;99.90
54409;DHT22;40315;48.620;9.828;2023-03-11T11:16:35;3.50;99.90
54409;DHT22;40315;48.620;9.828;2023-03-11T11:19:08;3.50;99.90
54409;DHT22;40315;48.620;9.828;2023-03-11T11:21:38;3.80;99.90
54409;DHT22;40315;48.620;9.828;2023-03-11T11:24:17;4.20;99.90
54409;DHT22;40315;48.620;9.828;2023-03-11T11:27:11;3.70;99.90
54409;DHT22;40315;48.620;9.828;2023-03-11T11:32:23;3.30;99.90
54409;DHT22;40315;48.620;9.828;2023-03-11T11:34:57;3.50;99.90
54409;DHT22;40315;48.620;9.828;2023-03-11T11:37:26;2.90;99.90
54409;DHT22;40315;48.620;9.828;2023-03-11T11:40:00;3.00;99.90
54409;DHT22;40315;48.620;9.828;2023-03-11T11:42:35;3.10;99.90
54409;DHT22;40315;48.620;9.828;2023-03-11T11:45:09;3.30;99.90
54409;DHT22;40315;48.620;9.828;2023-03-11T11:47:42;3.40;99.90
54409;DHT22;40315;48.620;9.828;2023-03-11T11:50:17;4.00;99.90
54409;DHT22;40315;48.620;9.828;2023-03-11T11:52:52;3.60;99.90
54409;DHT22;40315;48.620;9.828;2023-03-11T11:55:23;3.80;99.90
54409;DHT22;40315;48.620;9.828;2023-03-11T11:57:52;4.20;99.90
54409;DHT22;40315;48.620;9.828;2023-03-11T12:00:20;4.00;99.90
54409;DHT22;40315;48.620;9.828;2023-03-11T12:03:08;4.10;99.90
54409;DHT22;40315;48.620;9.828;2023-03-11T12:05:51;3.80;99.90
54409;DHT22;40315;48.620;9.828;2023-03-11T12:08:24;3.90;99.90
54409;DHT22;40315;48.620;9.828;2023-03-11T12:10:56;3.40;99.90
54409;DHT22;40315;48.620;9.828;2023-03-11T12:13:55;3.50;99.90
54409;DHT22;40315;48.620;9.828;2023-03-11T12:16:36;3.40;99.90
54409;DHT22;40315;48.620;9.828;2023-03-11T12:19:17;3.50;99.90
54409;DHT22;40315;48.620;9.828;2023-03-11T12:22:09;3.60;99.90
54409;DHT22;40315;48.620;9.828;2023-03-11T12:24:57;4.00;99.90
54409;DHT22;40315;48.620;9.828;2023-03-11T12:27:30;3.80;99.90
54409;DHT22;40315;48.620;9.828;2023-03-11T12:30:01;3.90;99.90
54409;DHT22;40315;48.620;9.828;2023-03-11T12:32:32;3.50;99.90
54409;DHT22;40315;48.620;9.828;2023-03-11T12:42:42;3.70;99.90
54409;DHT22;40315;48.620;9.828;2023-03-11T12:45:48;4.10;99.90
54409;DHT22;40315;48.620;9.828;2023-03-11T12:48:33;4.50;99.90
54409;DHT22;40315;48.620;9.828;2023-03-11T12:53:44;4.80;99.90
54409;DHT22;40315;48.620;9.828;2023-03-11T12:56:22;5.20;99.90
54409;DHT22;40315;48.620;9.828;2023-03-11T12:59:07;2.80;99.90
54409;DHT22;40315;48.620;9.828;2023-03-11T13:01:44;5.10;99.90
54409;DHT22;40315;48.620;9.828;2023-03-11T13:04:22;5.20;99.90
54409;DHT22;40315;48.620;9.828;2023-03-11T13:10:11;5.80;99.90
54409;DHT22;40315;48.620;9.828;2023-03-11T13:12:44;6.30;99.90
54409;DHT22;40315;48.620;9.828;2023-03-11T13:15:34;6.40;99.90
54409;DHT22;40315;48.620;9.828;2023-03-11T13:18:11;5.70;99.90
54409;DHT22;40315;48.620;9.828;2023-03-11T13:20:45;5.30;99.90
54409;DHT22;40315;48.620;9.828;2023-03-11T13:23:34;5.20;99.90
54409;DHT22;40315;48.620;9.828;2023-03-11T13:26:29;5.60;99.90
54409;DHT22;40315;48.620;9.828;2023-03-11T13:34:35;6.40;99.90
54409;DHT22;40315;48.620;9.828;2023-03-11T13:37:19;6.00;99.90
54409;DHT22;40315;48.620;9.828;2023-03-11T13:40:01;6.10;99.90
54409;DHT22;40315;48.620;9.828;2023-03-11T13:42:36;6.20;99.90
54409;DHT22;40315;48.620;9.828;2023-03-11T13:47:34;5.80;99.90
54409;DHT22;40315;48.620;9.828;2023-03-11T13:50:04;5.10;99.90
54409;DHT22;40315;48.620;9.828;2023-03-11T13:52:33;5.00;99.90
54409;DHT22;40315;48.620;9.828;2023-03-11T13:55:05;5.30;99.90
54409;DHT22;40315;48.620;9.828;2023-03-11T13:57:36;5.40;99.90
54409;DHT22;40315;48.620;9.828;2023-03-11T14:00:09;5.60;99.90
54409;DHT22;40315;48.620;9.828;2023-03-11T14:02:46;5.40;99.90
54409;DHT22;40315;48.620;9.828;2023-03-11T14:05:21;5.50;99.90
54409;DHT22;40315;48.620;9.828;2023-03-11T14:07:51;5.70;99.90
54409;DHT22;40315;48.620;9.828;2023-03-11T14:10:28;5.20;99.90
54409;DHT22;40315;48.620;9.828;2023-03-11T14:13:14;5.40;99.90
54409;DHT22;40315;48.620;9.828;2023-03-11T14:15:45;5.60;99.90
54409;DHT22;40315;48.620;9.828;2023-03-11T14:18:29;5.50;99.90
54409;DHT22;40315;48.620;9.828;2023-03-11T14:20:57;5.70;99.90
54409;DHT22;40315;48.620;9.828;2023-03-11T14:23:29;5.80;99.90
54409;DHT22;40315;48.620;9.828;2023-03-11T14:26:03;5.70;99.90
54409;DHT22;40315;48.620;9.828;2023-03-11T14:28:35;5.70;99.90
54409;DHT22;40315;48.620;9.828;2023-03-11T14:31:03;5.40;99.90
54409;DHT22;40315;48.620;9.828;2023-03-11T14:33:31;5.80;99.90
54409;DHT22;40315;48.620;9.828;2023-03-11T14:36:01;6.40;99.90
54409;DHT22;40315;48.620;9.828;2023-03-11T14:38:30;6.40;99.90
54409;DHT22;40315;48.620;9.828;2023-03-11T14:40:59;7.10;99.90
54409;DHT22;40315;48.620;9.828;2023-03-11T14:43:30;6.30;99.90
54409;DHT22;40315;48.620;9.828;2023-03-11T14:46:02;5.90;99.90
54409;DHT22;40315;48.620;9.828;2023-03-11T14:48:31;6.00;99.90
54409;DHT22;40315;48.620;9.828;2023-03-11T14:51:01;6.10;99.90
54409;DHT22;40315;48.620;9.828;2023-03-11T14:53:33;5.90;99.90
54409;DHT22;40315;48.620;9.828;2023-03-11T14:56:05;6.20;99.90
54409;DHT22;40315;48.620;9.828;2023-03-11T14:58:36;5.40;99.90
54409;DHT22;40315;48.620;9.828;2023-03-11T15:01:09;6.70;99.90
54409;DHT22;40315;48.620;9.828;2023-03-11T15:03:38;6.20;99.90
54409;DHT22;40315;48.620;9.828;2023-03-11T15:06:08;5.50;99.90
54409;DHT22;40315;48.620;9.828;2023-03-11T15:08:45;5.50;99.90
54409;DHT22;40315;48.620;9.828;2023-03-11T15:11:20;5.50;99.90
54409;DHT22;40315;48.620;9.828;2023-03-11T15:13:50;5.00;99.90
54409;DHT22;40315;48.620;9.828;2023-03-11T15:16:29;5.00;99.90
54409;DHT22;40315;48.620;9.828;2023-03-11T15:19:01;4.90;99.90
54409;DHT22;40315;48.620;9.828;2023-03-11T15:21:48;4.90;99.90
54409;DHT22;40315;48.620;9.828;2023-03-11T15:24:20;4.70;99.90
54409;DHT22;40315;48.620;9.828;2023-03-11T15:26:55;4.70;99.90
54409;DHT22;40315;48.620;9.828;2023-03-11T15:29:24;5.10;99.90
54409;DHT22;40315;48.620;9.828;2023-03-11T15:34:32;5.00;99.90
54409;DHT22;40315;48.620;9.828;2023-03-11T15:37:14;4.90;99.90
54409;DHT22;40315;48.620;9.828;2023-03-11T15:39:48;4.90;99.90
54409;DHT22;40315;48.620;9.828;2023-03-11T15:42:20;4.80;99.90
54409;DHT22;40315;48.620;9.828;2023-03-11T15:47:46;5.10;99.90
54409;DHT22;40315;48.620;9.828;2023-03-11T15:50:24;5.10;99.90
54409;DHT22;40315;48.620;9.828;2023-03-11T15:52:54;4.80;99.90
54409;DHT22;40315;48.620;9.828;2023-03-11T15:55:22;4.70;99.90
54409;DHT22;40315;48.620;9.828;2023-03-11T15:57:55;4.70;99.90
54409;DHT22;40315;48.620;9.828;2023-03-11T16:00:23;4.50;99.90
54409;DHT22;40315;48.620;9.828;2023-03-11T16:02:54;4.60;99.90
54409;DHT22;40315;48.620;9.828;2023-03-11T16:05:23;4.60;99.90
54409;DHT22;40315;48.620;9.828;2023-03-11T16:07:53;4.60;99.90
54409;DHT22;40315;48.620;9.828;2023-03-11T16:10:25;4.50;99.90
54409;DHT22;40315;48.620;9.828;2023-03-11T16:12:53;4.60;99.90
54409;DHT22;40315;48.620;9.828;2023-03-11T16:15:22;4.60;99.90
54409;DHT22;40315;48.620;9.828;2023-03-11T16:17:55;4.60;99.90
54409;DHT22;40315;48.620;9.828;2023-03-11T16:20:24;4.60;99.90
54409;DHT22;40315;48.620;9.828;2023-03-11T16:22:56;4.40;99.90
54409;DHT22;40315;48.620;9.828;2023-03-11T16:25:26;4.50;99.90
54409;DHT22;40315;48.620;9.828;2023-03-11T16:27:57;4.50;99.90
54409;DHT22;40315;48.620;9.828;2023-03-11T16:30:28;4.40;99.90
54409;DHT22;40315;48.620;9.828;2023-03-11T16:32:57;4.30;99.90
54409;DHT22;40315;48.620;9.828;2023-03-11T16:35:26;4.30;99.90
54409;DHT22;40315;48.620;9.828;2023-03-11T16:37:56;4.20;99.90
54409;DHT22;40315;48.620;9.828;2023-03-11T16:40:26;4.20;99.90
54409;DHT22;40315;48.620;9.828;2023-03-11T16:42:58;4.20;99.90
54409;DHT22;40315;48.620;9.828;2023-03-11T16:45:26;4.30;99.90
54409;DHT22;40315;48.620;9.828;2023-03-11T16:47:58;4.30;99.90
54409;DHT22;40315;48.620;9.828;2023-03-11T16:50:25;4.30;99.90
54409;DHT22;40315;48.620;9.828;2023-03-11T16:52:55;4.00;99.90
54409;DHT22;40315;48.620;9.828;2023-03-11T16:55:25;3.90;99.90
54409;DHT22;40315;48.620;9.828;2023-03-11T16:57:54;4.10;99.90
54409;DHT22;40315;48.620;9.828;2023-03-11T17:05:21;4.00;99.90
54409;DHT22;40315;48.620;9.828;2023-03-11T17:12:49;4.20;99.90
54409;DHT22;40315;48.620;9.828;2023-03-11T17:15:17;4.10;99.90
54409;DHT22;40315;48.620;9.828;2023-03-11T17:27:38;4.00;99.90
54409;DHT22;40315;48.620;9.828;2023-03-11T17:30:06;3.80;99.90
54409;DHT22;40315;48.620;9.828;2023-03-11T17:35:01;3.80;99.90
54409;DHT22;40315;48.620;9.828;2023-03-11T17:37:30;3.80;99.90
54409;DHT22;40315;48.620;9.828;2023-03-11T17:39:59;3.80;99.90
54409;DHT22;40315;48.620;9.828;2023-03-11T17:42:27;3.80;99.90
54409;DHT22;40315;48.620;9.828;2023-03-11T17:44:56;3.80;99.90
54409;DHT22;40315;48.620;9.828;2023-03-11T17:47:23;3.80;99.90
54409;DHT22;40315;48.620;9.828;2023-03-11T17:49:52;3.70;99.90
54409;DHT22;40315;48.620;9.828;2023-03-11T17:52:21;3.70;99.90
54409;DHT22;40315;48.620;9.828;2023-03-11T17:59:49;3.70;99.90
54409;DHT22;40315;48.620;9.828;2023-03-11T18:02:18;3.70;99.90
54409;DHT22;40315;48.620;9.828;2023-03-11T18:07:19;3.60;99.90
54409;DHT22;40315;48.620;9.828;2023-03-11T18:12:20;3.40;99.90
54409;DHT22;40315;48.620;9.828;2023-03-11T18:27:14;3.10;99.90
54409;DHT22;40315;48.620;9.828;2023-03-11T18:29:44;3.10;99.90
54409;DHT22;40315;48.620;9.828;2023-03-11T18:32:14;3.00;99.90
54409;DHT22;40315;48.620;9.828;2023-03-11T18:34:43;2.90;99.90
54409;DHT22;40315;48.620;9.828;2023-03-11T18:37:11;2.90;99.90
54409;DHT22;40315;48.620;9.828;2023-03-11T18:39:40;3.00;99.90
54409;DHT22;40315;48.620;9.828;2023-03-11T18:42:08;3.10;99.90
54409;DHT22;40315;48.620;9.828;2023-03-11T18:44:37;3.00;99.90
54409;DHT22;40315;48.620;9.828;2023-03-11T18:52:09;2.80;99.90
54409;DHT22;40315;48.620;9.828;2023-03-11T18:54:39;4.90;99.90
54409;DHT22;40315;48.620;9.828;2023-03-11T18:57:08;2.70;99.90
54409;DHT22;40315;48.620;9.828;2023-03-11T18:59:35;2.70;99.90
54409;DHT22;40315;48.620;9.828;2023-03-11T19:07:04;2.10;99.90
54409;DHT22;40315;48.620;9.828;2023-03-11T19:11:59;2.10;99.90
54409;DHT22;40315;48.620;9.828;2023-03-11T19:16:56;2.10;99.90
54409;DHT22;40315;48.620;9.828;2023-03-11T19:19:27;2.00;99.90
54409;DHT22;40315;48.620;9.828;2023-03-11T19:22:00;1.90;99.90
54409;DHT22;40315;48.620;9.828;2023-03-11T19:24:28;1.90;99.90
54409;DHT22;40315;48.620;9.828;2023-03-11T19:26:55;1.80;99.90
54409;DHT22;40315;48.620;9.828;2023-03-11T19:29:22;1.80;99.90
54409;DHT22;40315;48.620;9.828;2023-03-11T19:31:51;1.70;99.90
54409;DHT22;40315;48.620;9.828;2023-03-11T19:34:19;1.60;99.90
54409;DHT22;40315;48.620;9.828;2023-03-11T19:36:48;3.40;99.90
54409;DHT22;40315;48.620;9.828;2023-03-11T19:39:16;1.60;99.90
54409;DHT22;40315;48.620;9.828;2023-03-11T19:41:46;1.70;99.90
54409;DHT22;40315;48.620;9.828;2023-03-11T19:44:16;1.60;99.90
54409;DHT22;40315;48.620;9.828;2023-03-11T19:46:44;1.60;99.90
54409;DHT22;40315;48.620;9.828;2023-03-11T19:49:11;1.50;99.90
54409;DHT22;40315;48.620;9.828;2023-03-11T19:51:39;1.50;99.90
54409;DHT22;40315;48.620;9.828;2023-03-11T19:54:06;1.50;99.90